createdAt,value
2022-11-24T00:14:26.804Z,5.73
2022-11-24T00:29:28.643Z,5.90
2022-11-24T00:44:30.954Z,6.10
2022-11-24T00:59:32.999Z,6.38
2022-11-24T01:14:35.067Z,6.56
2022-11-24T01:29:37.165Z,6.60
2022-11-24T01:44:39.213Z,6.43
2022-11-24T01:59:41.344Z,6.59
2022-11-24T02:14:44.875Z,6.75
2022-11-24T02:29:48.229Z,6.67
2022-11-24T02:44:54.878Z,6.84
2022-11-24T02:59:56.842Z,7.02
2022-11-24T03:14:58.709Z,6.85
2022-11-24T03:30:00.893Z,6.85
2022-11-24T03:45:29.802Z,6.71
2022-11-24T04:00:24.909Z,6.73
2022-11-24T04:15:26.798Z,6.92
2022-11-24T04:30:29.721Z,6.98
2022-11-24T04:45:32.068Z,7.13
2022-11-24T05:00:34.041Z,7.07
2022-11-24T05:15:38.587Z,6.89
2022-11-24T05:30:41.327Z,6.84
2022-11-24T05:45:44.646Z,6.88
2022-11-24T06:00:46.839Z,7.07
2022-11-24T06:15:48.601Z,7.00
2022-11-24T06:30:50.365Z,7.16
2022-11-24T06:45:52.372Z,7.74
2022-11-24T07:00:54.514Z,9.51
2022-11-24T07:15:56.402Z,8.84
2022-11-24T07:30:58.819Z,8.73
2022-11-24T07:46:01.410Z,8.60
2022-11-24T08:01:14.767Z,8.80
2022-11-24T08:16:18.921Z,9.16
2022-11-24T08:31:20.849Z,9.62
2022-11-24T08:46:24.136Z,9.72
2022-11-24T09:01:29.842Z,10.94
2022-11-24T09:16:31.724Z,10.23
2022-11-24T09:31:36.265Z,10.51
2022-11-24T09:47:10.368Z,10.45
2022-11-24T10:02:13.435Z,10.57
2022-11-24T10:17:46.746Z,10.37
2022-11-24T10:32:53.141Z,10.64
2022-11-24T10:47:55.280Z,10.93
2022-11-24T11:03:18.509Z,11.41
2022-11-24T11:18:21.712Z,11.41
2022-11-24T11:48:48.665Z,11.77
2022-11-24T12:04:11.946Z,11.80
2022-11-24T12:19:46.934Z,11.76
2022-11-24T12:34:59.231Z,11.89
2022-11-24T12:50:13.566Z,11.81
2022-11-24T13:05:46.672Z,11.70
2022-11-24T13:20:48.507Z,11.68
2022-11-24T13:36:02.481Z,11.74
2022-11-24T13:51:04.325Z,11.70
2022-11-24T14:06:06.660Z,11.75
2022-11-24T14:21:20.636Z,11.75
2022-11-24T14:36:22.695Z,11.72
2022-11-24T14:51:29.606Z,11.83
2022-11-24T15:06:31.596Z,11.85
2022-11-24T15:21:37.500Z,11.79
2022-11-24T15:36:39.368Z,11.81
2022-11-24T15:51:44.960Z,11.79
2022-11-24T16:06:46.692Z,11.83
2022-11-24T16:21:49.318Z,11.74
2022-11-24T16:36:51.105Z,11.73
2022-11-24T16:51:54.615Z,11.87
2022-11-24T17:06:58.514Z,11.86
2022-11-24T17:22:00.386Z,11.78
2022-11-24T17:37:02.193Z,11.81
2022-11-24T17:52:04.279Z,11.82
2022-11-24T18:07:06.164Z,11.56
2022-11-24T18:22:07.941Z,11.43
2022-11-24T18:37:13.499Z,11.18
2022-11-24T18:52:15.678Z,11.08
2022-11-24T19:07:17.574Z,10.80
2022-11-24T19:22:19.504Z,10.65
2022-11-24T19:37:21.709Z,10.43
2022-11-24T19:52:25.824Z,10.26
2022-11-24T20:07:27.642Z,10.38
2022-11-24T20:22:29.811Z,10.42
2022-11-24T20:37:32.357Z,10.47
2022-11-24T20:52:34.427Z,10.24
2022-11-24T21:08:07.315Z,10.24
2022-11-24T21:23:09.390Z,10.14
2022-11-24T21:38:11.922Z,10.03
2022-11-24T21:53:14.191Z,9.85
2022-11-24T22:08:15.979Z,9.70
2022-11-24T22:23:17.758Z,9.74
2022-11-24T22:38:19.536Z,9.84
2022-11-24T22:53:21.474Z,9.88
2022-11-24T23:08:23.274Z,9.68
2022-11-24T23:23:25.046Z,9.61
2022-11-24T23:38:30.152Z,9.72
2022-11-24T23:53:33.372Z,9.68
